Terminal Aerodrome Forecast
Issued by NWS Charleston, WV

Current Version | Previous Version | Graphics & Text | Print | Product List | Glossary On
Versions: 1 2 3 4 5 6 7 8 9 10 11 12 13 14 15 16 17 18 19 20 21 22 23 24 25 26 27 28
237
FTUS41 KRLX 270603 CCA
TAFEKN
TAF COR
KEKN 270603Z 2706/2806 20005KT 2SM SHRA BKN035
     FM270630 19005KT 3SM SHRA OVC040
     FM270700 19005KT 4SM BR VCSH OVC025
     FM271300 22005KT P6SM BKN040
     FM280400 17002KT P6SM SHRA BKN050=

USA.gov is the U.S. government's official web portal to all federal, state and local government web resources and services.